sensor_id;sensor_type;location;lat;lon;timestamp;temperature;humidity
8707;DHT22;4390;49.302;9.306;2022-11-21T00:01:00;4.60;98.30
8707;DHT22;4390;49.302;9.306;2022-11-21T00:03:37;4.80;98.30
8707;DHT22;4390;49.302;9.306;2022-11-21T00:06:04;4.90;98.30
8707;DHT22;4390;49.302;9.306;2022-11-21T00:08:31;4.70;98.30
8707;DHT22;4390;49.302;9.306;2022-11-21T00:10:58;4.60;98.30
8707;DHT22;4390;49.302;9.306;2022-11-21T00:13:25;4.60;98.30
8707;DHT22;4390;49.302;9.306;2022-11-21T00:15:52;4.60;98.30
8707;DHT22;4390;49.302;9.306;2022-11-21T00:18:18;4.50;98.30
8707;DHT22;4390;49.302;9.306;2022-11-21T00:20:45;4.70;98.30
8707;DHT22;4390;49.302;9.306;2022-11-21T00:23:12;4.60;98.30
8707;DHT22;4390;49.302;9.306;2022-11-21T00:25:39;4.70;98.30
8707;DHT22;4390;49.302;9.306;2022-11-21T00:28:06;4.40;98.30
8707;DHT22;4390;49.302;9.306;2022-11-21T00:30:33;4.20;98.30
8707;DHT22;4390;49.302;9.306;2022-11-21T00:33:00;4.10;98.30
8707;DHT22;4390;49.302;9.306;2022-11-21T00:35:26;4.20;98.30
8707;DHT22;4390;49.302;9.306;2022-11-21T00:37:53;4.30;98.30
8707;DHT22;4390;49.302;9.306;2022-11-21T00:40:20;4.50;98.30
8707;DHT22;4390;49.302;9.306;2022-11-21T00:42:47;4.50;98.30
8707;DHT22;4390;49.302;9.306;2022-11-21T00:45:14;4.60;98.30
8707;DHT22;4390;49.302;9.306;2022-11-21T00:47:48;4.80;98.30
8707;DHT22;4390;49.302;9.306;2022-11-21T00:50:15;4.90;98.30
8707;DHT22;4390;49.302;9.306;2022-11-21T00:52:41;5.10;98.30
8707;DHT22;4390;49.302;9.306;2022-11-21T00:55:08;5.30;98.30
8707;DHT22;4390;49.302;9.306;2022-11-21T00:57:35;5.40;98.30
8707;DHT22;4390;49.302;9.306;2022-11-21T01:00:03;5.40;98.30
8707;DHT22;4390;49.302;9.306;2022-11-21T01:02:31;5.40;98.30
8707;DHT22;4390;49.302;9.306;2022-11-21T01:04:58;5.10;98.30
8707;DHT22;4390;49.302;9.306;2022-11-21T01:07:25;5.10;98.30
8707;DHT22;4390;49.302;9.306;2022-11-21T01:09:52;5.00;98.30
8707;DHT22;4390;49.302;9.306;2022-11-21T01:12:18;4.90;98.30
8707;DHT22;4390;49.302;9.306;2022-11-21T01:14:45;4.80;98.30
8707;DHT22;4390;49.302;9.306;2022-11-21T01:17:12;4.70;98.30
8707;DHT22;4390;49.302;9.306;2022-11-21T01:19:39;4.80;98.30
8707;DHT22;4390;49.302;9.306;2022-11-21T01:22:06;4.80;98.30
8707;DHT22;4390;49.302;9.306;2022-11-21T01:24:32;4.70;98.30
8707;DHT22;4390;49.302;9.306;2022-11-21T01:26:59;4.60;98.30
8707;DHT22;4390;49.302;9.306;2022-11-21T01:29:27;4.60;98.30
8707;DHT22;4390;49.302;9.306;2022-11-21T01:31:53;4.70;98.30
8707;DHT22;4390;49.302;9.306;2022-11-21T01:34:20;4.90;98.30
8707;DHT22;4390;49.302;9.306;2022-11-21T01:36:47;4.80;98.30
8707;DHT22;4390;49.302;9.306;2022-11-21T01:39:14;5.00;98.30
8707;DHT22;4390;49.302;9.306;2022-11-21T01:41:42;5.00;98.30
8707;DHT22;4390;49.302;9.306;2022-11-21T01:44:17;4.90;98.30
8707;DHT22;4390;49.302;9.306;2022-11-21T01:46:45;5.00;98.30
8707;DHT22;4390;49.302;9.306;2022-11-21T01:49:21;5.00;98.30
8707;DHT22;4390;49.302;9.306;2022-11-21T01:54:50;5.20;98.30
8707;DHT22;4390;49.302;9.306;2022-11-21T02:00:19;5.10;98.30
8707;DHT22;4390;49.302;9.306;2022-11-21T02:02:47;5.30;98.30
8707;DHT22;4390;49.302;9.306;2022-11-21T02:05:21;5.30;98.30
8707;DHT22;4390;49.302;9.306;2022-11-21T02:07:51;5.40;98.30
8707;DHT22;4390;49.302;9.306;2022-11-21T02:10:21;5.50;98.30
8707;DHT22;4390;49.302;9.306;2022-11-21T02:12:51;5.40;98.30
8707;DHT22;4390;49.302;9.306;2022-11-21T02:15:20;5.20;98.30
8707;DHT22;4390;49.302;9.306;2022-11-21T02:17:48;5.00;98.30
8707;DHT22;4390;49.302;9.306;2022-11-21T02:20:17;5.10;98.30
8707;DHT22;4390;49.302;9.306;2022-11-21T02:22:59;5.20;98.30
8707;DHT22;4390;49.302;9.306;2022-11-21T02:25:40;5.10;98.30
8707;DHT22;4390;49.302;9.306;2022-11-21T02:28:11;5.10;98.30
8707;DHT22;4390;49.302;9.306;2022-11-21T02:30:41;5.20;98.30
8707;DHT22;4390;49.302;9.306;2022-11-21T02:33:08;5.40;98.30
8707;DHT22;4390;49.302;9.306;2022-11-21T02:35:35;5.40;98.30
8707;DHT22;4390;49.302;9.306;2022-11-21T02:40:54;5.20;98.30
8707;DHT22;4390;49.302;9.306;2022-11-21T02:43:28;4.80;98.30
8707;DHT22;4390;49.302;9.306;2022-11-21T02:45:56;4.60;98.30
8707;DHT22;4390;49.302;9.306;2022-11-21T02:48:24;4.70;98.30
8707;DHT22;4390;49.302;9.306;2022-11-21T02:50:51;4.70;98.30
8707;DHT22;4390;49.302;9.306;2022-11-21T02:53:18;4.80;98.30
8707;DHT22;4390;49.302;9.306;2022-11-21T02:55:45;4.80;98.30
8707;DHT22;4390;49.302;9.306;2022-11-21T02:58:12;4.90;98.30
8707;DHT22;4390;49.302;9.306;2022-11-21T03:00:40;5.20;98.30
8707;DHT22;4390;49.302;9.306;2022-11-21T03:03:08;5.20;98.30
8707;DHT22;4390;49.302;9.306;2022-11-21T03:05:35;5.20;98.30
8707;DHT22;4390;49.302;9.306;2022-11-21T03:08:03;5.10;98.30
8707;DHT22;4390;49.302;9.306;2022-11-21T03:10:30;5.20;98.30
8707;DHT22;4390;49.302;9.306;2022-11-21T03:12:58;5.40;98.30
8707;DHT22;4390;49.302;9.306;2022-11-21T03:15:30;5.60;98.30
8707;DHT22;4390;49.302;9.306;2022-11-21T03:17:57;5.40;98.30
8707;DHT22;4390;49.302;9.306;2022-11-21T03:20:26;5.10;98.30
8707;DHT22;4390;49.302;9.306;2022-11-21T03:22:53;5.00;98.30
8707;DHT22;4390;49.302;9.306;2022-11-21T03:25:20;5.10;98.30
8707;DHT22;4390;49.302;9.306;2022-11-21T03:27:51;5.20;98.30
8707;DHT22;4390;49.302;9.306;2022-11-21T03:30:22;5.50;98.30
8707;DHT22;4390;49.302;9.306;2022-11-21T03:32:50;5.60;98.30
8707;DHT22;4390;49.302;9.306;2022-11-21T03:35:20;5.50;98.30
8707;DHT22;4390;49.302;9.306;2022-11-21T03:37:47;5.50;98.30
8707;DHT22;4390;49.302;9.306;2022-11-21T03:40:14;5.60;98.30
8707;DHT22;4390;49.302;9.306;2022-11-21T03:42:41;5.60;98.30
8707;DHT22;4390;49.302;9.306;2022-11-21T03:45:08;5.30;98.30
8707;DHT22;4390;49.302;9.306;2022-11-21T03:47:34;5.40;98.30
8707;DHT22;4390;49.302;9.306;2022-11-21T03:50:01;5.20;98.30
8707;DHT22;4390;49.302;9.306;2022-11-21T03:52:28;5.10;98.30
8707;DHT22;4390;49.302;9.306;2022-11-21T03:54:55;5.20;98.30
8707;DHT22;4390;49.302;9.306;2022-11-21T03:57:21;5.20;98.30
8707;DHT22;4390;49.302;9.306;2022-11-21T03:59:48;5.30;98.30
8707;DHT22;4390;49.302;9.306;2022-11-21T04:02:15;5.20;98.30
8707;DHT22;4390;49.302;9.306;2022-11-21T04:04:42;5.20;98.30
8707;DHT22;4390;49.302;9.306;2022-11-21T04:07:08;5.10;98.30
8707;DHT22;4390;49.302;9.306;2022-11-21T04:09:35;4.90;98.30
8707;DHT22;4390;49.302;9.306;2022-11-21T04:12:02;4.70;98.30
8707;DHT22;4390;49.302;9.306;2022-11-21T04:14:33;4.90;98.30
8707;DHT22;4390;49.302;9.306;2022-11-21T04:17:00;5.10;98.30
8707;DHT22;4390;49.302;9.306;2022-11-21T04:19:27;5.10;98.30
8707;DHT22;4390;49.302;9.306;2022-11-21T04:21:54;5.30;98.30
8707;DHT22;4390;49.302;9.306;2022-11-21T04:24:21;5.10;98.30
8707;DHT22;4390;49.302;9.306;2022-11-21T04:26:47;5.10;98.30
8707;DHT22;4390;49.302;9.306;2022-11-21T04:29:14;5.10;98.30
8707;DHT22;4390;49.302;9.306;2022-11-21T04:31:41;5.30;98.30
8707;DHT22;4390;49.302;9.306;2022-11-21T04:34:08;5.50;98.30
8707;DHT22;4390;49.302;9.306;2022-11-21T04:36:34;5.50;98.30
8707;DHT22;4390;49.302;9.306;2022-11-21T04:39:01;5.50;98.30
8707;DHT22;4390;49.302;9.306;2022-11-21T04:41:28;5.30;98.30
8707;DHT22;4390;49.302;9.306;2022-11-21T04:43:55;5.30;98.30
8707;DHT22;4390;49.302;9.306;2022-11-21T04:46:22;5.50;98.30
8707;DHT22;4390;49.302;9.306;2022-11-21T04:48:49;5.50;98.30
8707;DHT22;4390;49.302;9.306;2022-11-21T04:51:16;5.50;98.30
8707;DHT22;4390;49.302;9.306;2022-11-21T04:53:42;5.20;98.30
8707;DHT22;4390;49.302;9.306;2022-11-21T04:56:09;5.30;98.30
8707;DHT22;4390;49.302;9.306;2022-11-21T04:58:36;5.30;98.30
8707;DHT22;4390;49.302;9.306;2022-11-21T05:01:07;5.00;98.30
8707;DHT22;4390;49.302;9.306;2022-11-21T05:03:35;4.90;98.30
8707;DHT22;4390;49.302;9.306;2022-11-21T05:06:02;4.80;98.30
8707;DHT22;4390;49.302;9.306;2022-11-21T05:08:29;4.90;98.30
8707;DHT22;4390;49.302;9.306;2022-11-21T05:10:56;5.10;98.30
8707;DHT22;4390;49.302;9.306;2022-11-21T05:13:41;5.20;98.30
8707;DHT22;4390;49.302;9.306;2022-11-21T05:16:08;4.90;98.30
8707;DHT22;4390;49.302;9.306;2022-11-21T05:18:34;4.80;98.30
8707;DHT22;4390;49.302;9.306;2022-11-21T05:21:02;4.80;98.30
8707;DHT22;4390;49.302;9.306;2022-11-21T05:23:29;4.90;98.30
8707;DHT22;4390;49.302;9.306;2022-11-21T05:25:56;5.10;98.30
8707;DHT22;4390;49.302;9.306;2022-11-21T05:28:22;5.30;98.30
8707;DHT22;4390;49.302;9.306;2022-11-21T05:30:49;5.40;98.30
8707;DHT22;4390;49.302;9.306;2022-11-21T05:33:16;5.50;98.30
8707;DHT22;4390;49.302;9.306;2022-11-21T05:35:43;5.40;98.30
8707;DHT22;4390;49.302;9.306;2022-11-21T05:38:10;5.50;98.30
8707;DHT22;4390;49.302;9.306;2022-11-21T05:40:37;5.50;98.30
8707;DHT22;4390;49.302;9.306;2022-11-21T05:43:03;5.40;98.30
8707;DHT22;4390;49.302;9.306;2022-11-21T05:45:49;5.10;98.30
8707;DHT22;4390;49.302;9.306;2022-11-21T05:48:16;5.10;98.30
8707;DHT22;4390;49.302;9.306;2022-11-21T05:50:46;5.10;98.30
8707;DHT22;4390;49.302;9.306;2022-11-21T05:53:14;5.30;98.30
8707;DHT22;4390;49.302;9.306;2022-11-21T05:55:42;5.50;98.30
8707;DHT22;4390;49.302;9.306;2022-11-21T05:58:09;5.50;98.30
8707;DHT22;4390;49.302;9.306;2022-11-21T06:00:36;5.50;98.30
8707;DHT22;4390;49.302;9.306;2022-11-21T06:03:04;5.70;98.30
8707;DHT22;4390;49.302;9.306;2022-11-21T06:05:50;5.60;98.30
8707;DHT22;4390;49.302;9.306;2022-11-21T06:08:17;5.60;98.30
8707;DHT22;4390;49.302;9.306;2022-11-21T06:10:44;5.80;98.30
8707;DHT22;4390;49.302;9.306;2022-11-21T06:13:10;5.90;98.30
8707;DHT22;4390;49.302;9.306;2022-11-21T06:16:04;5.80;98.30
8707;DHT22;4390;49.302;9.306;2022-11-21T06:18:33;5.70;98.30
8707;DHT22;4390;49.302;9.306;2022-11-21T06:21:18;5.70;98.30
8707;DHT22;4390;49.302;9.306;2022-11-21T06:23:49;5.60;98.30
8707;DHT22;4390;49.302;9.306;2022-11-21T06:26:18;5.60;98.30
8707;DHT22;4390;49.302;9.306;2022-11-21T06:28:45;5.80;98.30
8707;DHT22;4390;49.302;9.306;2022-11-21T06:33:41;5.70;98.30
8707;DHT22;4390;49.302;9.306;2022-11-21T06:36:13;5.50;98.30
8707;DHT22;4390;49.302;9.306;2022-11-21T06:38:41;5.60;98.30
8707;DHT22;4390;49.302;9.306;2022-11-21T06:41:16;5.70;98.30
8707;DHT22;4390;49.302;9.306;2022-11-21T06:43:44;5.50;98.30
8707;DHT22;4390;49.302;9.306;2022-11-21T06:46:12;5.50;98.30
8707;DHT22;4390;49.302;9.306;2022-11-21T06:48:40;5.50;98.30
8707;DHT22;4390;49.302;9.306;2022-11-21T06:51:11;5.60;98.30
8707;DHT22;4390;49.302;9.306;2022-11-21T06:53:38;5.70;98.30
8707;DHT22;4390;49.302;9.306;2022-11-21T06:56:05;5.70;98.30
8707;DHT22;4390;49.302;9.306;2022-11-21T06:58:32;5.40;98.30
8707;DHT22;4390;49.302;9.306;2022-11-21T07:01:06;5.40;98.30
8707;DHT22;4390;49.302;9.306;2022-11-21T07:03:34;5.50;98.30
8707;DHT22;4390;49.302;9.306;2022-11-21T07:06:02;5.60;98.30
8707;DHT22;4390;49.302;9.306;2022-11-21T07:08:30;5.80;98.30
8707;DHT22;4390;49.302;9.306;2022-11-21T07:11:03;5.80;98.30
8707;DHT22;4390;49.302;9.306;2022-11-21T07:13:50;5.80;98.30
8707;DHT22;4390;49.302;9.306;2022-11-21T07:16:17;5.60;98.30
8707;DHT22;4390;49.302;9.306;2022-11-21T07:18:44;5.60;98.30
8707;DHT22;4390;49.302;9.306;2022-11-21T07:21:11;5.50;98.30
8707;DHT22;4390;49.302;9.306;2022-11-21T07:23:38;5.50;98.30
8707;DHT22;4390;49.302;9.306;2022-11-21T07:26:06;5.70;98.30
8707;DHT22;4390;49.302;9.306;2022-11-21T07:28:34;5.60;98.30
8707;DHT22;4390;49.302;9.306;2022-11-21T07:31:01;5.50;98.30
8707;DHT22;4390;49.302;9.306;2022-11-21T07:33:39;5.30;98.30
8707;DHT22;4390;49.302;9.306;2022-11-21T07:36:06;5.30;98.30
8707;DHT22;4390;49.302;9.306;2022-11-21T07:38:33;5.40;98.30
8707;DHT22;4390;49.302;9.306;2022-11-21T07:41:00;5.40;98.30
8707;DHT22;4390;49.302;9.306;2022-11-21T07:43:26;5.30;98.30
8707;DHT22;4390;49.302;9.306;2022-11-21T07:45:54;5.30;98.30
8707;DHT22;4390;49.302;9.306;2022-11-21T07:48:21;5.40;98.30
8707;DHT22;4390;49.302;9.306;2022-11-21T07:50:48;5.30;98.30
8707;DHT22;4390;49.302;9.306;2022-11-21T07:53:15;5.40;98.30
8707;DHT22;4390;49.302;9.306;2022-11-21T07:55:42;5.30;98.30
8707;DHT22;4390;49.302;9.306;2022-11-21T07:58:11;5.30;98.30
8707;DHT22;4390;49.302;9.306;2022-11-21T08:00:41;5.40;98.30
8707;DHT22;4390;49.302;9.306;2022-11-21T08:03:09;5.60;98.30
8707;DHT22;4390;49.302;9.306;2022-11-21T08:05:40;5.90;98.30
8707;DHT22;4390;49.302;9.306;2022-11-21T08:08:11;6.00;98.30
8707;DHT22;4390;49.302;9.306;2022-11-21T08:10:43;6.20;98.30
8707;DHT22;4390;49.302;9.306;2022-11-21T08:13:12;6.20;98.30
8707;DHT22;4390;49.302;9.306;2022-11-21T08:15:39;6.00;98.30
8707;DHT22;4390;49.302;9.306;2022-11-21T08:18:16;6.00;98.30
8707;DHT22;4390;49.302;9.306;2022-11-21T08:20:46;5.80;98.30
8707;DHT22;4390;49.302;9.306;2022-11-21T08:23:14;5.60;98.30
8707;DHT22;4390;49.302;9.306;2022-11-21T08:25:41;5.60;98.30
8707;DHT22;4390;49.302;9.306;2022-11-21T08:28:10;5.80;98.30
8707;DHT22;4390;49.302;9.306;2022-11-21T08:30:38;5.60;98.30
8707;DHT22;4390;49.302;9.306;2022-11-21T08:33:06;5.70;98.30
8707;DHT22;4390;49.302;9.306;2022-11-21T08:35:35;5.80;98.30
8707;DHT22;4390;49.302;9.306;2022-11-21T08:38:05;5.90;98.30
8707;DHT22;4390;49.302;9.306;2022-11-21T08:40:34;5.90;98.30
8707;DHT22;4390;49.302;9.306;2022-11-21T08:43:03;5.60;98.30
8707;DHT22;4390;49.302;9.306;2022-11-21T08:45:32;5.70;98.30
8707;DHT22;4390;49.302;9.306;2022-11-21T08:47:59;5.70;98.30
8707;DHT22;4390;49.302;9.306;2022-11-21T08:50:26;5.80;98.30
8707;DHT22;4390;49.302;9.306;2022-11-21T08:53:00;5.90;98.30
8707;DHT22;4390;49.302;9.306;2022-11-21T08:55:28;5.90;98.30
8707;DHT22;4390;49.302;9.306;2022-11-21T08:57:55;6.10;98.30
8707;DHT22;4390;49.302;9.306;2022-11-21T09:00:22;6.40;98.30
8707;DHT22;4390;49.302;9.306;2022-11-21T09:02:49;6.30;98.30
8707;DHT22;4390;49.302;9.306;2022-11-21T09:05:16;6.00;98.30
8707;DHT22;4390;49.302;9.306;2022-11-21T09:07:43;6.00;98.30
8707;DHT22;4390;49.302;9.306;2022-11-21T09:10:10;6.30;98.30
8707;DHT22;4390;49.302;9.306;2022-11-21T09:12:37;6.20;98.30
8707;DHT22;4390;49.302;9.306;2022-11-21T09:15:04;6.00;98.30
8707;DHT22;4390;49.302;9.306;2022-11-21T09:17:50;5.90;98.30
8707;DHT22;4390;49.302;9.306;2022-11-21T09:20:39;5.90;98.30
8707;DHT22;4390;49.302;9.306;2022-11-21T09:23:08;6.10;98.20
8707;DHT22;4390;49.302;9.306;2022-11-21T09:25:36;6.20;97.40
8707;DHT22;4390;49.302;9.306;2022-11-21T09:28:05;6.20;97.50
8707;DHT22;4390;49.302;9.306;2022-11-21T09:30:32;6.40;97.20
8707;DHT22;4390;49.302;9.306;2022-11-21T09:33:00;6.70;96.90
8707;DHT22;4390;49.302;9.306;2022-11-21T09:35:27;6.60;96.00
8707;DHT22;4390;49.302;9.306;2022-11-21T09:37:54;6.60;96.60
8707;DHT22;4390;49.302;9.306;2022-11-21T09:40:21;6.60;96.10
8707;DHT22;4390;49.302;9.306;2022-11-21T09:45:49;6.30;96.80
8707;DHT22;4390;49.302;9.306;2022-11-21T09:48:28;6.40;96.90
8707;DHT22;4390;49.302;9.306;2022-11-21T09:51:01;6.30;96.50
8707;DHT22;4390;49.302;9.306;2022-11-21T09:53:38;6.40;96.40
8707;DHT22;4390;49.302;9.306;2022-11-21T09:56:13;7.00;95.00
8707;DHT22;4390;49.302;9.306;2022-11-21T09:58:50;8.00;94.10
8707;DHT22;4390;49.302;9.306;2022-11-21T10:01:23;11.70;90.20
8707;DHT22;4390;49.302;9.306;2022-11-21T10:03:51;15.50;79.40
8707;DHT22;4390;49.302;9.306;2022-11-21T10:06:46;14.30;78.80
8707;DHT22;4390;49.302;9.306;2022-11-21T10:09:25;13.80;79.60
8707;DHT22;4390;49.302;9.306;2022-11-21T10:12:12;13.70;80.00
8707;DHT22;4390;49.302;9.306;2022-11-21T10:18:27;13.10;80.50
8707;DHT22;4390;49.302;9.306;2022-11-21T10:21:29;13.70;80.30
8707;DHT22;4390;49.302;9.306;2022-11-21T10:24:20;19.70;71.80
8707;DHT22;4390;49.302;9.306;2022-11-21T10:29:34;24.70;61.40
8707;DHT22;4390;49.302;9.306;2022-11-21T10:32:09;20.40;65.90
8707;DHT22;4390;49.302;9.306;2022-11-21T10:34:37;17.00;70.30
8707;DHT22;4390;49.302;9.306;2022-11-21T10:37:25;18.20;71.50
8707;DHT22;4390;49.302;9.306;2022-11-21T10:39:54;17.00;70.80
8707;DHT22;4390;49.302;9.306;2022-11-21T10:42:33;17.00;71.90
8707;DHT22;4390;49.302;9.306;2022-11-21T10:45:02;20.50;68.10
8707;DHT22;4390;49.302;9.306;2022-11-21T10:47:43;20.90;65.80
8707;DHT22;4390;49.302;9.306;2022-11-21T10:50:24;17.80;68.60
8707;DHT22;4390;49.302;9.306;2022-11-21T10:53:07;16.20;70.90
8707;DHT22;4390;49.302;9.306;2022-11-21T10:55:58;16.70;72.30
8707;DHT22;4390;49.302;9.306;2022-11-21T10:58:46;14.50;74.10
8707;DHT22;4390;49.302;9.306;2022-11-21T11:06:53;12.20;79.80
8707;DHT22;4390;49.302;9.306;2022-11-21T11:11:48;11.00;80.60
8707;DHT22;4390;49.302;9.306;2022-11-21T11:14:30;11.60;81.40
8707;DHT22;4390;49.302;9.306;2022-11-21T11:16:57;12.00;79.80
8707;DHT22;4390;49.302;9.306;2022-11-21T11:19:28;14.20;78.80
8707;DHT22;4390;49.302;9.306;2022-11-21T11:22:26;13.60;76.10
8707;DHT22;4390;49.302;9.306;2022-11-21T11:24:53;11.50;78.90
8707;DHT22;4390;49.302;9.306;2022-11-21T11:27:28;10.60;81.50
8707;DHT22;4390;49.302;9.306;2022-11-21T11:29:55;12.90;79.50
8707;DHT22;4390;49.302;9.306;2022-11-21T11:32:21;17.10;74.60
8707;DHT22;4390;49.302;9.306;2022-11-21T11:37:41;21.50;65.90
8707;DHT22;4390;49.302;9.306;2022-11-21T11:40:27;20.80;66.20
8707;DHT22;4390;49.302;9.306;2022-11-21T11:46:51;16.30;70.40
8707;DHT22;4390;49.302;9.306;2022-11-21T11:49:50;15.40;73.40
8707;DHT22;4390;49.302;9.306;2022-11-21T11:58:02;17.50;71.30
8707;DHT22;4390;49.302;9.306;2022-11-21T12:00:57;17.90;71.00
8707;DHT22;4390;49.302;9.306;2022-11-21T12:03:50;20.00;68.50
8707;DHT22;4390;49.302;9.306;2022-11-21T12:06:26;21.30;66.50
8707;DHT22;4390;49.302;9.306;2022-11-21T12:12:21;21.10;64.50
8707;DHT22;4390;49.302;9.306;2022-11-21T12:23:20;21.70;64.10
8707;DHT22;4390;49.302;9.306;2022-11-21T12:26:21;22.50;63.80
8707;DHT22;4390;49.302;9.306;2022-11-21T12:43:40;19.90;65.50
8707;DHT22;4390;49.302;9.306;2022-11-21T12:46:24;20.50;65.10
8707;DHT22;4390;49.302;9.306;2022-11-21T12:49:27;20.30;64.50
8707;DHT22;4390;49.302;9.306;2022-11-21T12:52:23;17.60;66.80
8707;DHT22;4390;49.302;9.306;2022-11-21T12:55:35;15.00;71.00
8707;DHT22;4390;49.302;9.306;2022-11-21T12:58:20;13.30;73.80
8707;DHT22;4390;49.302;9.306;2022-11-21T13:03:59;11.40;78.10
8707;DHT22;4390;49.302;9.306;2022-11-21T13:06:35;10.40;80.50
8707;DHT22;4390;49.302;9.306;2022-11-21T13:09:06;9.70;82.40
8707;DHT22;4390;49.302;9.306;2022-11-21T13:11:44;9.30;84.30
8707;DHT22;4390;49.302;9.306;2022-11-21T13:20:23;9.90;84.40
8707;DHT22;4390;49.302;9.306;2022-11-21T13:22:55;10.00;83.90
8707;DHT22;4390;49.302;9.306;2022-11-21T13:30:51;10.00;83.70
8707;DHT22;4390;49.302;9.306;2022-11-21T13:36:04;9.50;84.60
8707;DHT22;4390;49.302;9.306;2022-11-21T13:58:48;10.70;83.40
8707;DHT22;4390;49.302;9.306;2022-11-21T14:04:41;10.50;84.50
8707;DHT22;4390;49.302;9.306;2022-11-21T14:07:36;10.60;84.60
8707;DHT22;4390;49.302;9.306;2022-11-21T14:12:50;10.50;85.50
8707;DHT22;4390;49.302;9.306;2022-11-21T14:15:37;10.50;86.00
8707;DHT22;4390;49.302;9.306;2022-11-21T14:18:14;10.40;85.80
8707;DHT22;4390;49.302;9.306;2022-11-21T14:20:50;10.50;86.20
8707;DHT22;4390;49.302;9.306;2022-11-21T14:23:22;10.60;85.10
8707;DHT22;4390;49.302;9.306;2022-11-21T14:25:59;10.70;84.70
8707;DHT22;4390;49.302;9.306;2022-11-21T14:28:33;10.80;83.80
8707;DHT22;4390;49.302;9.306;2022-11-21T14:31:01;10.90;83.10
8707;DHT22;4390;49.302;9.306;2022-11-21T14:33:31;10.70;83.50
8707;DHT22;4390;49.302;9.306;2022-11-21T14:38:43;10.70;83.70
8707;DHT22;4390;49.302;9.306;2022-11-21T14:43:46;10.50;83.80
8707;DHT22;4390;49.302;9.306;2022-11-21T14:46:19;10.30;83.90
8707;DHT22;4390;49.302;9.306;2022-11-21T14:48:46;10.30;83.90
8707;DHT22;4390;49.302;9.306;2022-11-21T14:51:17;10.10;86.10
8707;DHT22;4390;49.302;9.306;2022-11-21T14:53:45;9.90;86.30
8707;DHT22;4390;49.302;9.306;2022-11-21T14:56:28;9.80;87.60
8707;DHT22;4390;49.302;9.306;2022-11-21T14:58:57;10.10;87.20
8707;DHT22;4390;49.302;9.306;2022-11-21T15:01:27;9.70;88.70
8707;DHT22;4390;49.302;9.306;2022-11-21T15:04:03;9.40;90.10
8707;DHT22;4390;49.302;9.306;2022-11-21T15:06:35;9.10;91.00
8707;DHT22;4390;49.302;9.306;2022-11-21T15:09:05;8.90;91.50
8707;DHT22;4390;49.302;9.306;2022-11-21T15:12:01;8.80;91.70
8707;DHT22;4390;49.302;9.306;2022-11-21T15:14:43;8.90;91.30
8707;DHT22;4390;49.302;9.306;2022-11-21T15:17:13;8.80;91.80
8707;DHT22;4390;49.302;9.306;2022-11-21T15:19:42;8.80;92.20
8707;DHT22;4390;49.302;9.306;2022-11-21T15:22:22;8.80;91.70
8707;DHT22;4390;49.302;9.306;2022-11-21T15:25:06;8.60;91.80
8707;DHT22;4390;49.302;9.306;2022-11-21T15:27:34;8.30;92.80
8707;DHT22;4390;49.302;9.306;2022-11-21T15:32:58;8.20;93.10
8707;DHT22;4390;49.302;9.306;2022-11-21T15:41:03;7.90;93.60
8707;DHT22;4390;49.302;9.306;2022-11-21T15:43:35;7.90;93.40
8707;DHT22;4390;49.302;9.306;2022-11-21T15:46:03;7.90;93.30
8707;DHT22;4390;49.302;9.306;2022-11-21T15:48:30;7.80;93.30
8707;DHT22;4390;49.302;9.306;2022-11-21T15:50:57;7.80;93.40
8707;DHT22;4390;49.302;9.306;2022-11-21T15:53:24;7.60;93.80
8707;DHT22;4390;49.302;9.306;2022-11-21T15:55:51;7.60;93.90
8707;DHT22;4390;49.302;9.306;2022-11-21T15:58:18;7.60;93.60
8707;DHT22;4390;49.302;9.306;2022-11-21T16:00:45;7.60;93.40
8707;DHT22;4390;49.302;9.306;2022-11-21T16:03:12;7.50;93.60
8707;DHT22;4390;49.302;9.306;2022-11-21T16:05:39;7.60;93.20
8707;DHT22;4390;49.302;9.306;2022-11-21T16:08:05;7.40;93.40
8707;DHT22;4390;49.302;9.306;2022-11-21T16:10:32;7.10;93.80
8707;DHT22;4390;49.302;9.306;2022-11-21T16:13:01;6.90;94.30
8707;DHT22;4390;49.302;9.306;2022-11-21T16:15:28;6.80;94.70
8707;DHT22;4390;49.302;9.306;2022-11-21T16:17:55;6.80;94.60
8707;DHT22;4390;49.302;9.306;2022-11-21T16:20:22;6.70;94.60
8707;DHT22;4390;49.302;9.306;2022-11-21T16:22:49;6.80;94.20
8707;DHT22;4390;49.302;9.306;2022-11-21T16:25:15;6.70;94.20
8707;DHT22;4390;49.302;9.306;2022-11-21T16:27:42;6.70;94.30
8707;DHT22;4390;49.302;9.306;2022-11-21T16:30:09;6.80;94.20
8707;DHT22;4390;49.302;9.306;2022-11-21T16:32:37;6.80;94.10
8707;DHT22;4390;49.302;9.306;2022-11-21T16:35:04;6.80;93.80
8707;DHT22;4390;49.302;9.306;2022-11-21T16:37:31;6.60;93.80
8707;DHT22;4390;49.302;9.306;2022-11-21T16:39:58;6.50;94.10
8707;DHT22;4390;49.302;9.306;2022-11-21T16:42:25;6.30;94.20
8707;DHT22;4390;49.302;9.306;2022-11-21T16:44:52;6.20;94.80
8707;DHT22;4390;49.302;9.306;2022-11-21T16:47:18;6.20;94.80
8707;DHT22;4390;49.302;9.306;2022-11-21T16:49:46;6.20;94.60
8707;DHT22;4390;49.302;9.306;2022-11-21T16:52:14;6.10;94.80
8707;DHT22;4390;49.302;9.306;2022-11-21T16:54:41;6.20;94.50
8707;DHT22;4390;49.302;9.306;2022-11-21T16:57:07;6.20;94.50
8707;DHT22;4390;49.302;9.306;2022-11-21T16:59:34;6.30;94.30
8707;DHT22;4390;49.302;9.306;2022-11-21T17:02:01;6.30;94.20
8707;DHT22;4390;49.302;9.306;2022-11-21T17:04:28;6.20;94.40
8707;DHT22;4390;49.302;9.306;2022-11-21T17:06:56;6.20;93.80
8707;DHT22;4390;49.302;9.306;2022-11-21T17:09:23;6.10;93.90
8707;DHT22;4390;49.302;9.306;2022-11-21T17:11:49;6.10;94.10
8707;DHT22;4390;49.302;9.306;2022-11-21T17:14:16;6.00;94.40
8707;DHT22;4390;49.302;9.306;2022-11-21T17:16:43;6.00;94.50
8707;DHT22;4390;49.302;9.306;2022-11-21T17:19:11;6.00;94.30
8707;DHT22;4390;49.302;9.306;2022-11-21T17:21:38;5.90;94.60
8707;DHT22;4390;49.302;9.306;2022-11-21T17:24:05;5.90;94.70
8707;DHT22;4390;49.302;9.306;2022-11-21T17:26:34;5.90;94.70
8707;DHT22;4390;49.302;9.306;2022-11-21T17:29:02;5.80;94.70
8707;DHT22;4390;49.302;9.306;2022-11-21T17:31:30;5.70;94.70
8707;DHT22;4390;49.302;9.306;2022-11-21T17:33:58;5.50;95.20
8707;DHT22;4390;49.302;9.306;2022-11-21T17:36:27;5.60;95.10
8707;DHT22;4390;49.302;9.306;2022-11-21T17:38:54;5.50;95.00
8707;DHT22;4390;49.302;9.306;2022-11-21T17:41:22;5.50;94.90
8707;DHT22;4390;49.302;9.306;2022-11-21T17:43:55;5.50;95.10
8707;DHT22;4390;49.302;9.306;2022-11-21T17:46:23;5.40;95.30
8707;DHT22;4390;49.302;9.306;2022-11-21T17:48:51;5.50;95.30
8707;DHT22;4390;49.302;9.306;2022-11-21T17:51:29;5.40;95.30
8707;DHT22;4390;49.302;9.306;2022-11-21T17:53:56;5.50;95.10
8707;DHT22;4390;49.302;9.306;2022-11-21T17:56:25;5.30;95.40
8707;DHT22;4390;49.302;9.306;2022-11-21T17:58:52;5.30;95.40
8707;DHT22;4390;49.302;9.306;2022-11-21T18:01:19;5.40;95.10
8707;DHT22;4390;49.302;9.306;2022-11-21T18:03:53;5.30;95.30
8707;DHT22;4390;49.302;9.306;2022-11-21T18:06:21;5.20;95.30
8707;DHT22;4390;49.302;9.306;2022-11-21T18:08:48;5.30;95.40
8707;DHT22;4390;49.302;9.306;2022-11-21T18:11:17;5.30;95.40
8707;DHT22;4390;49.302;9.306;2022-11-21T18:13:45;5.40;95.30
8707;DHT22;4390;49.302;9.306;2022-11-21T18:16:19;5.40;95.20
8707;DHT22;4390;49.302;9.306;2022-11-21T18:18:47;5.40;94.90
8707;DHT22;4390;49.302;9.306;2022-11-21T18:21:20;5.50;94.60
8707;DHT22;4390;49.302;9.306;2022-11-21T18:23:48;5.40;94.60
8707;DHT22;4390;49.302;9.306;2022-11-21T18:26:21;5.30;95.00
8707;DHT22;4390;49.302;9.306;2022-11-21T18:28:49;5.30;95.20
8707;DHT22;4390;49.302;9.306;2022-11-21T18:31:36;5.40;95.30
8707;DHT22;4390;49.302;9.306;2022-11-21T18:34:04;5.40;95.20
8707;DHT22;4390;49.302;9.306;2022-11-21T18:36:32;5.60;95.30
8707;DHT22;4390;49.302;9.306;2022-11-21T18:38:59;5.60;94.70
8707;DHT22;4390;49.302;9.306;2022-11-21T18:41:37;5.70;94.40